Terminal Aerodrome Forecast
Issued by NWS

Home | Current Version | Previous Version | Text Only | Print | Product List | Glossary On
Versions: 1 2 3 4 5 6 7 8 9 10 11 12 13 14 15 16 17 18 19 20
000
FTUS44 KTSA 262340
TAFFYV
TAF
KFYV 262340Z 2700/2724 12010KT P6SM VCTS SCT090 BKN150CB
     FM270200 15010KT P6SM VCTS BKN050CB BKN070
      TEMPO 2703/2706 VRB12KT 4SM TSRA BKN035CB
     FM270700 19006KT P6SM VCTS SCT015 BKN035CB
     FM271000 VRB05KT 4SM BR VCSH BKN006 BKN015
     FM271800 32007KT P6SM BKN015 BKN025=

USA.gov is the U.S. government's official web portal to all federal, state and local government web resources and services.